sensor_id;sensor_type;location;lat;lon;timestamp;pressure;altitude;pressure_sealevel;temperature;humidity
11692;BME280;33659;42.672;23.354;2022-12-29T00:01:37;95266.94;;;6.13;77.51
11692;BME280;33659;42.672;23.354;2022-12-29T00:04:04;95264.94;;;6.29;77.06
11692;BME280;33659;42.672;23.354;2022-12-29T00:06:31;95257.75;;;6.44;76.44
11692;BME280;33659;42.672;23.354;2022-12-29T00:08:58;95260.44;;;6.58;75.53
11692;BME280;33659;42.672;23.354;2022-12-29T00:11:26;95260.81;;;6.70;75.22
11692;BME280;33659;42.672;23.354;2022-12-29T00:13:55;95259.41;;;6.78;75.12
11692;BME280;33659;42.672;23.354;2022-12-29T00:16:40;95255.63;;;6.89;73.79
11692;BME280;33659;42.672;23.354;2022-12-29T00:19:08;95260.09;;;7.02;73.32
11692;BME280;33659;42.672;23.354;2022-12-29T00:21:57;95268.56;;;7.08;72.77
11692;BME280;33659;42.672;23.354;2022-12-29T00:24:41;95269.06;;;7.10;72.89
11692;BME280;33659;42.672;23.354;2022-12-29T00:27:26;95264.47;;;7.21;72.70
11692;BME280;33659;42.672;23.354;2022-12-29T00:30:14;95268.75;;;7.30;71.99
11692;BME280;33659;42.672;23.354;2022-12-29T00:32:58;95276.66;;;7.39;71.72
11692;BME280;33659;42.672;23.354;2022-12-29T00:35:45;95270.84;;;7.47;70.88
11692;BME280;33659;42.672;23.354;2022-12-29T00:38:13;95273.25;;;7.57;70.65
11692;BME280;33659;42.672;23.354;2022-12-29T00:41:12;95269.34;;;7.60;69.99
11692;BME280;33659;42.672;23.354;2022-12-29T00:43:56;95277.31;;;7.64;69.88
11692;BME280;33659;42.672;23.354;2022-12-29T00:46:33;95283.50;;;7.68;69.73
11692;BME280;33659;42.672;23.354;2022-12-29T00:49:01;95285.81;;;7.69;69.20
11692;BME280;33659;42.672;23.354;2022-12-29T00:51:45;95283.00;;;7.66;69.19
11692;BME280;33659;42.672;23.354;2022-12-29T00:54:12;95281.75;;;7.63;69.31
11692;BME280;33659;42.672;23.354;2022-12-29T00:56:39;95286.66;;;7.65;69.19
11692;BME280;33659;42.672;23.354;2022-12-29T00:59:08;95285.53;;;7.71;68.61
11692;BME280;33659;42.672;23.354;2022-12-29T01:01:37;95286.81;;;7.73;68.70
11692;BME280;33659;42.672;23.354;2022-12-29T01:04:04;95282.56;;;7.77;68.59
11692;BME280;33659;42.672;23.354;2022-12-29T01:06:31;95276.78;;;7.67;68.64
11692;BME280;33659;42.672;23.354;2022-12-29T01:08:58;95286.44;;;7.80;68.38
11692;BME280;33659;42.672;23.354;2022-12-29T01:11:41;95280.84;;;7.86;68.13
11692;BME280;33659;42.672;23.354;2022-12-29T01:14:08;95275.53;;;7.92;67.77
11692;BME280;33659;42.672;23.354;2022-12-29T01:16:36;95273.75;;;7.92;67.69
11692;BME280;33659;42.672;23.354;2022-12-29T01:19:03;95267.94;;;7.95;67.97
11692;BME280;33659;42.672;23.354;2022-12-29T01:21:30;95273.16;;;7.95;67.55
11692;BME280;33659;42.672;23.354;2022-12-29T01:23:57;95270.47;;;8.00;67.66
11692;BME280;33659;42.672;23.354;2022-12-29T01:26:24;95271.03;;;7.97;67.77
11692;BME280;33659;42.672;23.354;2022-12-29T01:28:50;95269.97;;;7.98;67.89
11692;BME280;33659;42.672;23.354;2022-12-29T01:31:17;95266.78;;;8.01;67.83
11692;BME280;33659;42.672;23.354;2022-12-29T01:33:45;95266.50;;;8.03;67.44
11692;BME280;33659;42.672;23.354;2022-12-29T01:36:13;95258.69;;;8.03;67.27
11692;BME280;33659;42.672;23.354;2022-12-29T01:38:41;95255.31;;;8.02;67.30
11692;BME280;33659;42.672;23.354;2022-12-29T01:41:09;95259.97;;;8.05;67.58
11692;BME280;33659;42.672;23.354;2022-12-29T01:43:41;95257.16;;;8.02;66.93
11692;BME280;33659;42.672;23.354;2022-12-29T01:46:16;95250.81;;;7.94;67.34
11692;BME280;33659;42.672;23.354;2022-12-29T01:48:48;95250.88;;;7.89;67.61
11692;BME280;33659;42.672;23.354;2022-12-29T01:51:16;95247.91;;;7.82;67.54
11692;BME280;33659;42.672;23.354;2022-12-29T01:53:44;95250.28;;;7.78;67.72
11692;BME280;33659;42.672;23.354;2022-12-29T01:56:14;95243.63;;;7.72;67.82
11692;BME280;33659;42.672;23.354;2022-12-29T01:58:46;95236.34;;;7.74;67.76
11692;BME280;33659;42.672;23.354;2022-12-29T02:01:16;95238.44;;;7.72;67.80
11692;BME280;33659;42.672;23.354;2022-12-29T02:03:44;95240.84;;;7.69;67.33
11692;BME280;33659;42.672;23.354;2022-12-29T02:06:15;95233.13;;;7.64;67.54
11692;BME280;33659;42.672;23.354;2022-12-29T02:08:46;95240.47;;;7.62;67.75
11692;BME280;33659;42.672;23.354;2022-12-29T02:11:13;95236.88;;;7.57;67.60
11692;BME280;33659;42.672;23.354;2022-12-29T02:13:41;95228.41;;;7.52;67.76
11692;BME280;33659;42.672;23.354;2022-12-29T02:19:04;95233.56;;;7.38;68.33
11692;BME280;33659;42.672;23.354;2022-12-29T02:21:54;95232.88;;;7.32;68.50
11692;BME280;33659;42.672;23.354;2022-12-29T02:25:04;95226.97;;;7.27;68.89
11692;BME280;33659;42.672;23.354;2022-12-29T02:27:54;95230.53;;;7.17;69.53
11692;BME280;33659;42.672;23.354;2022-12-29T02:33:17;95228.72;;;7.31;69.16
11692;BME280;33659;42.672;23.354;2022-12-29T02:35:51;95236.16;;;7.38;68.95
11692;BME280;33659;42.672;23.354;2022-12-29T02:38:34;95236.84;;;7.44;68.39
11692;BME280;33659;42.672;23.354;2022-12-29T02:41:07;95225.59;;;7.48;68.35
11692;BME280;33659;42.672;23.354;2022-12-29T02:43:40;95228.91;;;7.54;67.80
11692;BME280;33659;42.672;23.354;2022-12-29T02:46:18;95213.38;;;7.49;67.57
11692;BME280;33659;42.672;23.354;2022-12-29T02:48:50;95230.81;;;7.62;67.68
11692;BME280;33659;42.672;23.354;2022-12-29T02:51:23;95229.78;;;7.63;67.06
11692;BME280;33659;42.672;23.354;2022-12-29T02:53:53;95229.78;;;7.63;67.08
11692;BME280;33659;42.672;23.354;2022-12-29T02:56:37;95231.69;;;7.57;67.67
11692;BME280;33659;42.672;23.354;2022-12-29T02:59:05;95225.94;;;7.60;67.51
11692;BME280;33659;42.672;23.354;2022-12-29T03:01:45;95214.34;;;7.53;67.86
11692;BME280;33659;42.672;23.354;2022-12-29T03:04:37;95221.03;;;7.40;68.16
11692;BME280;33659;42.672;23.354;2022-12-29T03:07:12;95212.69;;;7.11;69.21
11692;BME280;33659;42.672;23.354;2022-12-29T03:09:49;95212.06;;;7.00;69.90
11692;BME280;33659;42.672;23.354;2022-12-29T03:12:25;95219.16;;;6.94;70.45
11692;BME280;33659;42.672;23.354;2022-12-29T03:15:19;95217.63;;;6.93;70.55
11692;BME280;33659;42.672;23.354;2022-12-29T03:18:12;95219.53;;;6.88;70.69
11692;BME280;33659;42.672;23.354;2022-12-29T03:20:44;95208.94;;;6.84;71.05
11692;BME280;33659;42.672;23.354;2022-12-29T03:23:16;95209.50;;;6.81;71.21
11692;BME280;33659;42.672;23.354;2022-12-29T03:25:47;95199.47;;;6.74;71.53
11692;BME280;33659;42.672;23.354;2022-12-29T03:28:19;95207.53;;;6.73;71.58
11692;BME280;33659;42.672;23.354;2022-12-29T03:30:47;95206.41;;;6.79;71.68
11692;BME280;33659;42.672;23.354;2022-12-29T03:33:17;95205.50;;;6.89;71.51
11692;BME280;33659;42.672;23.354;2022-12-29T03:35:49;95196.84;;;6.93;71.18
11692;BME280;33659;42.672;23.354;2022-12-29T03:38:22;95212.78;;;7.05;70.29
11692;BME280;33659;42.672;23.354;2022-12-29T03:40:52;95208.19;;;7.16;69.85
11692;BME280;33659;42.672;23.354;2022-12-29T03:43:22;95201.53;;;7.10;69.69
11692;BME280;33659;42.672;23.354;2022-12-29T03:45:49;95211.50;;;7.22;69.27
11692;BME280;33659;42.672;23.354;2022-12-29T03:48:17;95217.47;;;7.22;68.69
11692;BME280;33659;42.672;23.354;2022-12-29T03:50:43;95221.19;;;7.16;68.75
11692;BME280;33659;42.672;23.354;2022-12-29T03:53:10;95226.56;;;7.20;68.37
11692;BME280;33659;42.672;23.354;2022-12-29T03:55:36;95226.47;;;7.11;68.57
11692;BME280;33659;42.672;23.354;2022-12-29T03:58:03;95230.41;;;7.09;68.57
11692;BME280;33659;42.672;23.354;2022-12-29T04:00:30;95235.16;;;7.01;68.65
11692;BME280;33659;42.672;23.354;2022-12-29T04:02:56;95231.31;;;6.99;68.76
11692;BME280;33659;42.672;23.354;2022-12-29T04:05:24;95236.50;;;6.99;68.87
11692;BME280;33659;42.672;23.354;2022-12-29T04:07:51;95239.31;;;7.02;68.97
11692;BME280;33659;42.672;23.354;2022-12-29T04:10:18;95238.13;;;6.95;69.07
11692;BME280;33659;42.672;23.354;2022-12-29T04:12:45;95233.44;;;6.97;69.07
11692;BME280;33659;42.672;23.354;2022-12-29T04:15:12;95233.03;;;6.90;69.39
11692;BME280;33659;42.672;23.354;2022-12-29T04:17:39;95228.03;;;6.93;69.30
11692;BME280;33659;42.672;23.354;2022-12-29T04:20:06;95223.53;;;6.80;69.70
11692;BME280;33659;42.672;23.354;2022-12-29T04:23:04;95237.63;;;6.93;69.67
11692;BME280;33659;42.672;23.354;2022-12-29T04:25:31;95238.41;;;6.93;69.54
11692;BME280;33659;42.672;23.354;2022-12-29T04:28:00;95236.94;;;6.87;69.94
11692;BME280;33659;42.672;23.354;2022-12-29T04:30:27;95241.16;;;6.83;70.13
11692;BME280;33659;42.672;23.354;2022-12-29T04:32:53;95242.19;;;6.82;70.27
11692;BME280;33659;42.672;23.354;2022-12-29T04:35:20;95242.69;;;6.84;70.43
11692;BME280;33659;42.672;23.354;2022-12-29T04:37:47;95241.06;;;6.88;70.65
11692;BME280;33659;42.672;23.354;2022-12-29T04:40:15;95246.41;;;6.97;70.23
11692;BME280;33659;42.672;23.354;2022-12-29T04:42:42;95249.19;;;7.00;69.96
11692;BME280;33659;42.672;23.354;2022-12-29T04:45:09;95249.34;;;7.09;69.55
11692;BME280;33659;42.672;23.354;2022-12-29T04:47:36;95254.66;;;7.18;68.90
11692;BME280;33659;42.672;23.354;2022-12-29T04:50:04;95259.56;;;7.19;68.72
11692;BME280;33659;42.672;23.354;2022-12-29T04:52:30;95260.41;;;7.15;68.55
11692;BME280;33659;42.672;23.354;2022-12-29T04:54:57;95272.63;;;7.14;68.81
11692;BME280;33659;42.672;23.354;2022-12-29T04:57:25;95264.94;;;7.09;68.66
11692;BME280;33659;42.672;23.354;2022-12-29T04:59:52;95258.41;;;7.12;68.73
11692;BME280;33659;42.672;23.354;2022-12-29T05:02:19;95264.28;;;7.17;68.38
11692;BME280;33659;42.672;23.354;2022-12-29T05:04:46;95261.34;;;7.24;67.96
11692;BME280;33659;42.672;23.354;2022-12-29T05:07:12;95264.69;;;7.24;67.79
11692;BME280;33659;42.672;23.354;2022-12-29T05:09:39;95262.09;;;7.24;67.74
11692;BME280;33659;42.672;23.354;2022-12-29T05:12:06;95265.00;;;7.23;68.12
11692;BME280;33659;42.672;23.354;2022-12-29T05:14:34;95270.19;;;7.23;68.13
11692;BME280;33659;42.672;23.354;2022-12-29T05:20:22;95267.25;;;7.11;68.39
11692;BME280;33659;42.672;23.354;2022-12-29T05:22:49;95268.78;;;7.12;68.32
11692;BME280;33659;42.672;23.354;2022-12-29T05:25:16;95265.91;;;7.13;68.15
11692;BME280;33659;42.672;23.354;2022-12-29T05:27:42;95257.56;;;7.16;68.01
11692;BME280;33659;42.672;23.354;2022-12-29T05:30:12;95271.25;;;7.22;67.73
11692;BME280;33659;42.672;23.354;2022-12-29T05:32:38;95265.53;;;7.20;67.93
11692;BME280;33659;42.672;23.354;2022-12-29T05:35:06;95263.44;;;7.22;67.97
11692;BME280;33659;42.672;23.354;2022-12-29T05:37:32;95267.66;;;7.18;68.09
11692;BME280;33659;42.672;23.354;2022-12-29T05:39:59;95260.50;;;7.10;68.43
11692;BME280;33659;42.672;23.354;2022-12-29T05:42:26;95261.56;;;7.09;68.33
11692;BME280;33659;42.672;23.354;2022-12-29T05:44:52;95266.41;;;7.15;68.71
11692;BME280;33659;42.672;23.354;2022-12-29T05:47:20;95263.53;;;7.17;68.62
11692;BME280;33659;42.672;23.354;2022-12-29T05:49:47;95271.78;;;7.19;68.75
11692;BME280;33659;42.672;23.354;2022-12-29T05:52:44;95275.84;;;7.25;68.60
11692;BME280;33659;42.672;23.354;2022-12-29T05:55:11;95276.78;;;7.15;68.75
11692;BME280;33659;42.672;23.354;2022-12-29T05:57:38;95269.22;;;7.00;69.03
11692;BME280;33659;42.672;23.354;2022-12-29T06:00:06;95279.31;;;7.01;69.49
11692;BME280;33659;42.672;23.354;2022-12-29T06:02:35;95289.03;;;6.96;69.83
11692;BME280;33659;42.672;23.354;2022-12-29T06:05:01;95280.78;;;6.89;70.04
11692;BME280;33659;42.672;23.354;2022-12-29T06:07:28;95279.53;;;6.86;70.54
11692;BME280;33659;42.672;23.354;2022-12-29T06:09:55;95284.94;;;6.90;70.31
11692;BME280;33659;42.672;23.354;2022-12-29T06:12:21;95287.78;;;6.88;70.51
11692;BME280;33659;42.672;23.354;2022-12-29T06:14:48;95287.72;;;6.93;70.49
11692;BME280;33659;42.672;23.354;2022-12-29T06:17:15;95293.09;;;7.02;70.51
11692;BME280;33659;42.672;23.354;2022-12-29T06:19:43;95283.94;;;7.04;70.31
11692;BME280;33659;42.672;23.354;2022-12-29T06:22:10;95287.19;;;7.15;70.07
11692;BME280;33659;42.672;23.354;2022-12-29T06:24:37;95287.84;;;7.21;69.87
11692;BME280;33659;42.672;23.354;2022-12-29T06:27:04;95287.50;;;7.27;69.72
11692;BME280;33659;42.672;23.354;2022-12-29T06:29:30;95287.25;;;7.29;69.51
11692;BME280;33659;42.672;23.354;2022-12-29T06:31:57;95280.34;;;7.38;69.70
11692;BME280;33659;42.672;23.354;2022-12-29T06:34:24;95286.50;;;7.42;69.21
11692;BME280;33659;42.672;23.354;2022-12-29T06:36:52;95286.34;;;7.52;69.02
11692;BME280;33659;42.672;23.354;2022-12-29T06:39:19;95293.06;;;7.53;68.88
11692;BME280;33659;42.672;23.354;2022-12-29T06:41:46;95290.63;;;7.62;69.05
11692;BME280;33659;42.672;23.354;2022-12-29T06:44:12;95297.75;;;7.70;68.87
11692;BME280;33659;42.672;23.354;2022-12-29T06:46:39;95286.97;;;7.77;68.63
11692;BME280;33659;42.672;23.354;2022-12-29T06:49:06;95297.00;;;7.83;68.54
11692;BME280;33659;42.672;23.354;2022-12-29T06:51:32;95298.00;;;7.87;68.23
11692;BME280;33659;42.672;23.354;2022-12-29T06:54:00;95304.16;;;7.92;68.25
11692;BME280;33659;42.672;23.354;2022-12-29T06:56:27;95305.91;;;7.96;68.19
11692;BME280;33659;42.672;23.354;2022-12-29T06:58:54;95309.19;;;8.02;68.05
11692;BME280;33659;42.672;23.354;2022-12-29T07:01:21;95303.00;;;7.98;68.19
11692;BME280;33659;42.672;23.354;2022-12-29T07:03:47;95309.78;;;7.99;68.29
11692;BME280;33659;42.672;23.354;2022-12-29T07:06:14;95314.09;;;8.03;67.89
11692;BME280;33659;42.672;23.354;2022-12-29T07:08:41;95303.59;;;8.08;67.69
11692;BME280;33659;42.672;23.354;2022-12-29T07:11:09;95309.50;;;8.14;68.03
11692;BME280;33659;42.672;23.354;2022-12-29T07:13:35;95308.03;;;8.22;67.40
11692;BME280;33659;42.672;23.354;2022-12-29T07:16:05;95302.16;;;8.30;67.02
11692;BME280;33659;42.672;23.354;2022-12-29T07:18:32;95302.56;;;8.37;66.55
11692;BME280;33659;42.672;23.354;2022-12-29T07:20:58;95306.75;;;8.52;66.29
11692;BME280;33659;42.672;23.354;2022-12-29T07:23:25;95303.16;;;8.61;65.57
11692;BME280;33659;42.672;23.354;2022-12-29T07:25:59;95301.59;;;8.74;65.32
11692;BME280;33659;42.672;23.354;2022-12-29T07:28:27;95304.41;;;8.78;65.18
11692;BME280;33659;42.672;23.354;2022-12-29T07:30:54;95303.31;;;8.79;64.43
11692;BME280;33659;42.672;23.354;2022-12-29T07:33:20;95308.75;;;8.82;64.11
11692;BME280;33659;42.672;23.354;2022-12-29T07:35:47;95304.28;;;8.83;64.40
11692;BME280;33659;42.672;23.354;2022-12-29T07:38:14;95308.34;;;8.89;64.36
11692;BME280;33659;42.672;23.354;2022-12-29T07:40:41;95309.19;;;8.98;64.12
11692;BME280;33659;42.672;23.354;2022-12-29T07:43:08;95308.97;;;9.08;64.00
11692;BME280;33659;42.672;23.354;2022-12-29T07:45:36;95311.94;;;9.15;63.63
11692;BME280;33659;42.672;23.354;2022-12-29T07:48:03;95302.34;;;9.25;63.49
11692;BME280;33659;42.672;23.354;2022-12-29T07:50:32;95310.72;;;9.35;62.75
11692;BME280;33659;42.672;23.354;2022-12-29T07:52:59;95301.34;;;9.34;62.51
11692;BME280;33659;42.672;23.354;2022-12-29T07:55:26;95312.91;;;9.42;62.14
11692;BME280;33659;42.672;23.354;2022-12-29T07:57:53;95313.69;;;9.42;62.00
11692;BME280;33659;42.672;23.354;2022-12-29T08:00:20;95320.63;;;9.47;62.17
11692;BME280;33659;42.672;23.354;2022-12-29T08:02:48;95310.53;;;9.54;62.11
11692;BME280;33659;42.672;23.354;2022-12-29T08:05:15;95312.91;;;9.64;61.48
11692;BME280;33659;42.672;23.354;2022-12-29T08:07:42;95322.78;;;9.76;61.61
11692;BME280;33659;42.672;23.354;2022-12-29T08:10:09;95333.66;;;9.92;60.69
11692;BME280;33659;42.672;23.354;2022-12-29T08:12:37;95326.41;;;9.89;60.73
11692;BME280;33659;42.672;23.354;2022-12-29T08:15:05;95316.44;;;9.91;60.54
11692;BME280;33659;42.672;23.354;2022-12-29T08:17:32;95319.38;;;9.98;60.07
11692;BME280;33659;42.672;23.354;2022-12-29T08:20:00;95313.91;;;10.08;60.19
11692;BME280;33659;42.672;23.354;2022-12-29T08:22:27;95317.09;;;10.27;59.42
11692;BME280;33659;42.672;23.354;2022-12-29T08:24:54;95314.66;;;10.31;59.18
11692;BME280;33659;42.672;23.354;2022-12-29T08:27:20;95315.88;;;10.25;58.73
11692;BME280;33659;42.672;23.354;2022-12-29T08:29:47;95309.88;;;10.24;59.42
11692;BME280;33659;42.672;23.354;2022-12-29T08:32:14;95311.22;;;10.22;59.07
11692;BME280;33659;42.672;23.354;2022-12-29T08:34:41;95314.03;;;10.25;59.20
11692;BME280;33659;42.672;23.354;2022-12-29T08:37:09;95313.63;;;10.41;59.37
11692;BME280;33659;42.672;23.354;2022-12-29T08:39:36;95313.19;;;10.56;58.66
11692;BME280;33659;42.672;23.354;2022-12-29T08:42:02;95309.69;;;10.61;58.21
11692;BME280;33659;42.672;23.354;2022-12-29T08:44:29;95307.25;;;10.73;58.28
11692;BME280;33659;42.672;23.354;2022-12-29T08:46:56;95311.59;;;10.86;58.05
11692;BME280;33659;42.672;23.354;2022-12-29T08:49:22;95308.25;;;11.03;57.51
11692;BME280;33659;42.672;23.354;2022-12-29T08:51:50;95317.28;;;11.14;56.99
11692;BME280;33659;42.672;23.354;2022-12-29T08:54:18;95317.00;;;11.24;56.23
11692;BME280;33659;42.672;23.354;2022-12-29T08:56:45;95305.50;;;11.34;55.94
11692;BME280;33659;42.672;23.354;2022-12-29T08:59:12;95295.78;;;11.34;55.88
11692;BME280;33659;42.672;23.354;2022-12-29T09:01:38;95302.09;;;11.25;55.82
11692;BME280;33659;42.672;23.354;2022-12-29T09:04:06;95307.19;;;11.21;56.16
11692;BME280;33659;42.672;23.354;2022-12-29T09:06:33;95296.72;;;11.30;56.03
11692;BME280;33659;42.672;23.354;2022-12-29T09:08:59;95296.38;;;11.49;55.27
11692;BME280;33659;42.672;23.354;2022-12-29T09:11:27;95297.59;;;11.69;55.17
11692;BME280;33659;42.672;23.354;2022-12-29T09:13:54;95288.34;;;11.80;54.71
11692;BME280;33659;42.672;23.354;2022-12-29T09:16:22;95285.56;;;11.93;54.56
11692;BME280;33659;42.672;23.354;2022-12-29T09:18:50;95274.63;;;12.00;54.09
11692;BME280;33659;42.672;23.354;2022-12-29T09:21:17;95282.97;;;12.23;54.92
11692;BME280;33659;42.672;23.354;2022-12-29T09:23:43;95284.94;;;12.35;53.64
11692;BME280;33659;42.672;23.354;2022-12-29T09:26:10;95292.91;;;12.47;53.27
11692;BME280;33659;42.672;23.354;2022-12-29T09:28:38;95284.19;;;12.64;53.13
11692;BME280;33659;42.672;23.354;2022-12-29T09:31:05;95279.22;;;12.92;52.21
11692;BME280;33659;42.672;23.354;2022-12-29T09:33:32;95276.34;;;13.06;51.66
11692;BME280;33659;42.672;23.354;2022-12-29T09:35:59;95282.75;;;13.17;51.49
11692;BME280;33659;42.672;23.354;2022-12-29T09:38:26;95279.31;;;13.25;51.04
11692;BME280;33659;42.672;23.354;2022-12-29T09:40:55;95275.75;;;13.30;51.18
11692;BME280;33659;42.672;23.354;2022-12-29T09:43:56;95267.03;;;13.38;50.83
11692;BME280;33659;42.672;23.354;2022-12-29T09:46:27;95263.97;;;13.36;50.35
11692;BME280;33659;42.672;23.354;2022-12-29T09:49:08;95267.16;;;13.41;50.75
11692;BME280;33659;42.672;23.354;2022-12-29T09:51:42;95263.19;;;13.35;50.68
11692;BME280;33659;42.672;23.354;2022-12-29T09:54:23;95264.97;;;13.43;50.93
11692;BME280;33659;42.672;23.354;2022-12-29T09:56:52;95255.19;;;13.65;50.76
11692;BME280;33659;42.672;23.354;2022-12-29T09:59:24;95250.00;;;13.89;49.98
11692;BME280;33659;42.672;23.354;2022-12-29T10:01:57;95247.19;;;14.06;49.56
11692;BME280;33659;42.672;23.354;2022-12-29T10:04:26;95245.13;;;14.24;51.53
11692;BME280;33659;42.672;23.354;2022-12-29T10:06:57;95241.94;;;14.43;50.22
11692;BME280;33659;42.672;23.354;2022-12-29T10:09:31;95235.63;;;14.56;49.25
11692;BME280;33659;42.672;23.354;2022-12-29T10:12:22;95238.75;;;14.74;49.58
11692;BME280;33659;42.672;23.354;2022-12-29T10:15:02;95236.81;;;14.99;48.58
11692;BME280;33659;42.672;23.354;2022-12-29T10:17:36;95230.19;;;15.17;48.79
11692;BME280;33659;42.672;23.354;2022-12-29T10:20:26;95227.47;;;15.42;48.03
11692;BME280;33659;42.672;23.354;2022-12-29T10:23:15;95224.94;;;15.74;47.39
11692;BME280;33659;42.672;23.354;2022-12-29T10:25:46;95220.03;;;16.04;46.19
11692;BME280;33659;42.672;23.354;2022-12-29T10:28:19;95227.41;;;16.30;45.42
11692;BME280;33659;42.672;23.354;2022-12-29T10:30:50;95218.44;;;16.50;45.09
11692;BME280;33659;42.672;23.354;2022-12-29T10:33:19;95218.31;;;16.62;44.38
11692;BME280;33659;42.672;23.354;2022-12-29T10:35:49;95218.31;;;16.62;45.63
11692;BME280;33659;42.672;23.354;2022-12-29T10:38:22;95219.81;;;16.79;44.80
11692;BME280;33659;42.672;23.354;2022-12-29T10:40:54;95203.09;;;16.91;45.20
11692;BME280;33659;42.672;23.354;2022-12-29T10:43:25;95209.44;;;17.05;43.89
11692;BME280;33659;42.672;23.354;2022-12-29T10:45:56;95206.44;;;17.26;44.58
11692;BME280;33659;42.672;23.354;2022-12-29T10:48:27;95200.16;;;17.54;43.37
11692;BME280;33659;42.672;23.354;2022-12-29T10:50:57;95203.41;;;17.67;42.69
11692;BME280;33659;42.672;23.354;2022-12-29T10:53:27;95195.88;;;17.46;41.93
11692;BME280;33659;42.672;23.354;2022-12-29T10:55:59;95191.69;;;17.45;43.28
11692;BME280;33659;42.672;23.354;2022-12-29T10:58:27;95198.16;;;17.47;43.03
11692;BME280;33659;42.672;23.354;2022-12-29T11:00:58;95193.19;;;17.65;42.81
11692;BME280;33659;42.672;23.354;2022-12-29T11:03:46;95188.69;;;17.89;42.28
11692;BME280;33659;42.672;23.354;2022-12-29T11:06:18;95171.38;;;17.91;41.54
11692;BME280;33659;42.672;23.354;2022-12-29T11:08:55;95180.97;;;18.03;41.24
11692;BME280;33659;42.672;23.354;2022-12-29T11:11:24;95177.63;;;17.83;41.91
11692;BME280;33659;42.672;23.354;2022-12-29T11:13:57;95171.78;;;17.28;41.90
11692;BME280;33659;42.672;23.354;2022-12-29T11:16:29;95180.13;;;17.11;42.59
11692;BME280;33659;42.672;23.354;2022-12-29T11:19:00;95173.91;;;16.64;43.64
11692;BME280;33659;42.672;23.354;2022-12-29T11:21:31;95151.84;;;16.18;45.54
11692;BME280;33659;42.672;23.354;2022-12-29T11:24:00;95156.88;;;15.76;45.08
11692;BME280;33659;42.672;23.354;2022-12-29T11:26:28;95166.47;;;15.84;47.05
11692;BME280;33659;42.672;23.354;2022-12-29T11:29:25;95166.88;;;16.52;45.28
11692;BME280;33659;42.672;23.354;2022-12-29T11:31:55;95167.00;;;17.14;44.29
11692;BME280;33659;42.672;23.354;2022-12-29T11:34:25;95156.66;;;18.17;42.51
11692;BME280;33659;42.672;23.354;2022-12-29T11:36:54;95130.94;;;18.70;40.02
11692;BME280;33659;42.672;23.354;2022-12-29T11:39:37;95145.13;;;19.59;38.71
11692;BME280;33659;42.672;23.354;2022-12-29T11:42:09;95151.00;;;20.41;37.04
11692;BME280;33659;42.672;23.354;2022-12-29T11:44:43;95140.09;;;21.55;35.65
11692;BME280;33659;42.672;23.354;2022-12-29T11:47:20;95149.84;;;22.72;33.50
11692;BME280;33659;42.672;23.354;2022-12-29T11:49:50;95151.97;;;23.83;31.35
11692;BME280;33659;42.672;23.354;2022-12-29T11:52:22;95132.47;;;25.06;30.11
11692;BME280;33659;42.672;23.354;2022-12-29T11:54:50;95136.28;;;26.33;28.49
11692;BME280;33659;42.672;23.354;2022-12-29T11:57:19;95146.03;;;27.26;27.85
11692;BME280;33659;42.672;23.354;2022-12-29T11:59:50;95142.94;;;27.96;25.91
11692;BME280;33659;42.672;23.354;2022-12-29T12:02:33;95139.22;;;28.06;25.61
11692;BME280;33659;42.672;23.354;2022-12-29T12:05:08;95138.38;;;27.93;25.65
11692;BME280;33659;42.672;23.354;2022-12-29T12:07:41;95139.69;;;26.96;27.07
11692;BME280;33659;42.672;23.354;2022-12-29T12:10:16;95134.53;;;27.25;26.34
11692;BME280;33659;42.672;23.354;2022-12-29T12:12:48;95127.63;;;27.44;26.21
11692;BME280;33659;42.672;23.354;2022-12-29T12:15:20;95127.09;;;27.49;26.21
11692;BME280;33659;42.672;23.354;2022-12-29T12:17:53;95133.44;;;28.08;25.72
11692;BME280;33659;42.672;23.354;2022-12-29T12:20:22;95124.47;;;28.73;24.66
11692;BME280;33659;42.672;23.354;2022-12-29T12:22:59;95123.59;;;28.34;24.64
11692;BME280;33659;42.672;23.354;2022-12-29T12:25:31;95121.63;;;27.20;25.99
11692;BME280;33659;42.672;23.354;2022-12-29T12:28:08;95122.84;;;26.36;27.10
11692;BME280;33659;42.672;23.354;2022-12-29T12:30:40;95122.88;;;26.56;27.03
11692;BME280;33659;42.672;23.354;2022-12-29T12:33:16;95119.56;;;27.44;26.07
11692;BME280;33659;42.672;23.354;2022-12-29T12:35:53;95121.66;;;27.53;25.34
11692;BME280;33659;42.672;23.354;2022-12-29T12:38:29;95111.44;;;27.97;25.36
11692;BME280;33659;42.672;23.354;2022-12-29T12:41:06;95110.34;;;28.56;25.29
11692;BME280;33659;42.672;23.354;2022-12-29T12:43:39;95108.97;;;28.77;23.96
11692;BME280;33659;42.672;23.354;2022-12-29T12:46:18;95111.13;;;28.98;24.73
11692;BME280;33659;42.672;23.354;2022-12-29T12:49:02;95110.69;;;29.12;24.23
11692;BME280;33659;42.672;23.354;2022-12-29T12:51:40;95105.44;;;28.67;24.41
11692;BME280;33659;42.672;23.354;2022-12-29T12:54:21;95112.34;;;27.25;25.81
11692;BME280;33659;42.672;23.354;2022-12-29T12:57:00;95116.19;;;25.51;27.78
11692;BME280;33659;42.672;23.354;2022-12-29T12:59:46;95108.31;;;23.62;29.93
11692;BME280;33659;42.672;23.354;2022-12-29T13:02:28;95104.94;;;23.51;30.60
11692;BME280;33659;42.672;23.354;2022-12-29T13:05:09;95110.88;;;23.76;30.52
11692;BME280;33659;42.672;23.354;2022-12-29T13:07:48;95110.22;;;23.65;30.68
11692;BME280;33659;42.672;23.354;2022-12-29T13:10:25;95105.72;;;22.71;31.86
11692;BME280;33659;42.672;23.354;2022-12-29T13:13:10;95116.50;;;22.39;33.19
11692;BME280;33659;42.672;23.354;2022-12-29T13:15:47;95110.28;;;22.81;32.17
11692;BME280;33659;42.672;23.354;2022-12-29T13:18:23;95119.34;;;23.02;31.73
11692;BME280;33659;42.672;23.354;2022-12-29T13:21:02;95117.19;;;22.57;31.86
11692;BME280;33659;42.672;23.354;2022-12-29T13:23:36;95114.56;;;22.50;31.89
11692;BME280;33659;42.672;23.354;2022-12-29T13:26:09;95123.38;;;21.69;32.70